createdAt,value
2022-09-01T00:00:50.396Z,66.80
2022-09-01T00:02:54.110Z,66.90
2022-09-01T00:04:58.795Z,66.90
2022-09-01T00:07:01.856Z,66.90
2022-09-01T00:09:09.159Z,67.00
2022-09-01T00:11:13.265Z,67.00
2022-09-01T00:13:16.159Z,67.10
2022-09-01T00:15:18.935Z,67.10
2022-09-01T00:17:22.641Z,67.20
2022-09-01T00:19:25.696Z,67.10
2022-09-01T00:21:31.023Z,67.20
2022-09-01T00:23:33.833Z,67.20
2022-09-01T00:25:37.077Z,67.20
2022-09-01T00:27:41.386Z,67.20
2022-09-01T00:29:44.370Z,67.20
2022-09-01T00:31:47.418Z,67.10
2022-09-01T00:33:51.462Z,67.10
2022-09-01T00:35:54.342Z,67.10
2022-09-01T00:37:57.462Z,67.10
2022-09-01T00:40:00.704Z,68.00
2022-09-01T00:42:03.749Z,67.40
2022-09-01T00:44:12.156Z,67.50
2022-09-01T00:46:18.303Z,67.50
2022-09-01T00:48:23.627Z,67.50
2022-09-01T00:50:27.006Z,67.40
2022-09-01T00:52:35.265Z,67.50
2022-09-01T00:54:42.429Z,67.60
2022-09-01T00:56:46.661Z,67.70
2022-09-01T00:58:56.167Z,67.80
2022-09-01T01:01:00.359Z,67.80
2022-09-01T01:03:03.190Z,67.90
2022-09-01T01:05:06.994Z,68.10
2022-09-01T01:07:18.363Z,68.10
2022-09-01T01:09:23.500Z,68.10
2022-09-01T01:11:28.846Z,68.70
2022-09-01T01:13:36.268Z,68.10
2022-09-01T01:15:42.970Z,68.00
2022-09-01T01:17:47.152Z,68.00
2022-09-01T01:20:10.612Z,68.10
2022-09-01T01:22:38.848Z,68.30
2022-09-01T01:24:43.129Z,68.30
2022-09-01T01:26:47.492Z,68.30
2022-09-01T01:28:52.012Z,68.30
2022-09-01T01:31:01.884Z,68.30
2022-09-01T01:33:06.232Z,68.50
2022-09-01T01:35:13.898Z,68.60
2022-09-01T01:37:19.871Z,68.60
2022-09-01T01:39:25.546Z,68.70
2022-09-01T01:41:32.013Z,68.80
2022-09-01T01:43:34.852Z,68.90
2022-09-01T01:45:37.653Z,68.90
2022-09-01T01:47:40.628Z,68.80
2022-09-01T01:49:44.437Z,68.90
2022-09-01T01:51:48.280Z,68.90
2022-09-01T01:53:52.779Z,69.00
2022-09-01T01:55:58.434Z,69.00
2022-09-01T01:58:04.642Z,69.00
2022-09-01T02:00:09.628Z,69.00
2022-09-01T02:02:12.931Z,69.20
2022-09-01T02:04:17.824Z,69.40
2022-09-01T02:06:22.947Z,69.40
2022-09-01T02:08:27.531Z,69.60
2022-09-01T02:10:33.079Z,69.50
2022-09-01T02:12:37.935Z,69.40
2022-09-01T02:14:42.064Z,69.40
2022-09-01T02:16:44.883Z,69.40
2022-09-01T02:18:48.591Z,69.40
2022-09-01T02:20:53.301Z,69.40
2022-09-01T02:22:56.374Z,69.40
2022-09-01T02:25:00.950Z,69.70
2022-09-01T02:27:03.960Z,69.70
2022-09-01T02:29:17.866Z,69.80
2022-09-01T02:31:22.985Z,69.80
2022-09-01T02:33:26.520Z,70.10
2022-09-01T02:35:37.965Z,70.10
2022-09-01T02:37:41.964Z,70.10
2022-09-01T02:39:44.687Z,70.20
2022-09-01T02:41:48.297Z,70.20
2022-09-01T02:43:51.751Z,70.20
2022-09-01T02:45:57.650Z,70.30
2022-09-01T02:48:01.854Z,70.30
2022-09-01T02:50:06.874Z,70.20
2022-09-01T02:52:10.289Z,70.30
2022-09-01T02:54:19.118Z,70.60
2022-09-01T02:56:25.348Z,70.70
2022-09-01T02:58:28.407Z,70.60
2022-09-01T03:00:31.573Z,70.70
2022-09-01T03:02:35.904Z,70.70
2022-09-01T03:04:40.024Z,70.80
2022-09-01T03:06:43.611Z,70.90
2022-09-01T03:08:46.754Z,71.10
2022-09-01T03:10:50.040Z,71.20
2022-09-01T03:12:52.760Z,71.30
2022-09-01T03:14:55.860Z,71.30
2022-09-01T03:17:00.616Z,71.40
2022-09-01T03:19:04.232Z,71.40
2022-09-01T03:21:09.545Z,71.50
2022-09-01T03:23:14.950Z,71.50
2022-09-01T03:25:25.125Z,71.80
2022-09-01T03:27:27.930Z,71.90
2022-09-01T03:29:30.680Z,71.90
2022-09-01T03:31:33.666Z,72.30
2022-09-01T03:33:36.564Z,72.10
2022-09-01T03:35:39.357Z,72.30
2022-09-01T03:37:44.284Z,72.20
2022-09-01T03:39:47.961Z,72.70
2022-09-01T03:41:53.664Z,72.30
2022-09-01T03:43:58.215Z,72.30
2022-09-01T03:46:01.621Z,72.40
2022-09-01T03:48:09.112Z,72.50
2022-09-01T03:50:20.204Z,72.40
2022-09-01T03:52:23.982Z,72.40
2022-09-01T03:54:30.462Z,72.80
2022-09-01T03:56:33.980Z,72.80
2022-09-01T03:58:36.851Z,72.80
2022-09-01T04:00:42.455Z,72.70
2022-09-01T04:02:56.041Z,72.80
2022-09-01T04:05:03.510Z,72.80
2022-09-01T04:07:08.265Z,72.80
2022-09-01T04:09:11.535Z,72.80
2022-09-01T04:11:18.956Z,73.00
2022-09-01T04:13:24.781Z,73.20
2022-09-01T04:15:28.589Z,73.20
2022-09-01T04:17:48.742Z,73.30
2022-09-01T04:19:51.590Z,73.20
2022-09-01T04:21:57.180Z,73.20
2022-09-01T04:24:00.074Z,73.30
2022-09-01T04:26:09.080Z,73.40
2022-09-01T04:28:22.945Z,73.30
2022-09-01T04:30:26.954Z,73.30
2022-09-01T04:32:30.741Z,73.40
2022-09-01T04:34:37.837Z,73.30
2022-09-01T04:36:42.327Z,73.20
2022-09-01T04:38:45.137Z,73.30
2022-09-01T04:40:49.364Z,73.30
2022-09-01T04:42:52.182Z,73.50
2022-09-01T04:44:58.153Z,73.60
2022-09-01T04:47:00.916Z,73.60
2022-09-01T04:49:13.049Z,73.70
2022-09-01T04:51:17.828Z,73.70
2022-09-01T04:53:20.719Z,73.60
2022-09-01T04:55:28.673Z,73.80
2022-09-01T04:57:31.530Z,73.90
2022-09-01T04:59:35.958Z,74.70
2022-09-01T05:01:47.673Z,74.00
2022-09-01T05:04:01.333Z,73.90
2022-09-01T05:06:04.440Z,73.90
2022-09-01T05:08:12.582Z,74.00
2022-09-01T05:10:15.391Z,74.00
2022-09-01T05:12:23.539Z,74.10
2022-09-01T05:14:27.056Z,74.10
2022-09-01T05:16:29.857Z,74.20
2022-09-01T05:18:34.380Z,74.40
2022-09-01T05:20:42.575Z,74.50
2022-09-01T05:22:45.318Z,74.50
2022-09-01T05:24:48.062Z,74.50
2022-09-01T05:26:50.916Z,74.40
2022-09-01T05:28:55.341Z,74.30
2022-09-01T05:31:02.195Z,74.40
2022-09-01T05:33:10.187Z,74.30
2022-09-01T05:35:14.345Z,74.20
2022-09-01T05:37:17.142Z,74.10
2022-09-01T05:39:20.858Z,73.90
2022-09-01T05:41:24.503Z,73.90
2022-09-01T05:43:27.870Z,73.70
2022-09-01T05:45:44.762Z,73.70
2022-09-01T05:47:54.975Z,73.70
2022-09-01T05:49:58.474Z,73.80
2022-09-01T05:52:02.805Z,73.80
2022-09-01T05:54:09.270Z,73.90
2022-09-01T05:56:15.136Z,74.00
2022-09-01T05:58:20.108Z,74.10
2022-09-01T06:00:23.320Z,74.20
2022-09-01T06:02:27.200Z,74.40
2022-09-01T06:04:30.940Z,74.60
2022-09-01T06:07:01.745Z,74.50
2022-09-01T06:09:08.532Z,74.50
2022-09-01T06:11:17.648Z,74.30
2022-09-01T06:13:21.994Z,74.30
2022-09-01T06:15:30.824Z,74.40
2022-09-01T06:17:36.025Z,74.20
2022-09-01T06:19:40.952Z,74.50
2022-09-01T06:21:43.761Z,74.70
2022-09-01T06:23:46.731Z,74.90
2022-09-01T06:25:51.990Z,75.20
2022-09-01T06:27:54.764Z,75.40
2022-09-01T06:29:58.370Z,75.60
2022-09-01T06:32:02.824Z,75.70
2022-09-01T06:34:07.386Z,75.70
2022-09-01T06:36:10.718Z,75.90
2022-09-01T06:38:17.487Z,75.90
2022-09-01T06:40:20.466Z,75.70
2022-09-01T06:42:24.681Z,75.70
2022-09-01T06:44:27.454Z,76.10
2022-09-01T06:46:30.202Z,75.70
2022-09-01T06:48:35.560Z,75.60
2022-09-01T06:55:33.825Z,75.30
2022-09-01T07:00:04.380Z,75.30
2022-09-01T07:02:13.930Z,75.10
2022-09-01T07:04:21.601Z,75.40
2022-09-01T07:12:08.846Z,75.60
2022-09-01T07:16:34.626Z,75.60
2022-09-01T07:18:40.455Z,75.20
2022-09-01T07:23:11.905Z,75.60
2022-09-01T07:25:16.681Z,75.80
2022-09-01T07:27:19.923Z,75.80
2022-09-01T07:29:29.694Z,75.70
2022-09-01T07:32:44.107Z,75.40
2022-09-01T07:43:44.791Z,74.90
2022-09-01T07:48:36.090Z,74.90
2022-09-01T07:53:08.573Z,74.80
2022-09-01T07:55:12.410Z,74.80
2022-09-01T07:57:18.480Z,74.60
2022-09-01T07:59:21.356Z,73.90
2022-09-01T08:01:30.078Z,74.20
2022-09-01T08:03:33.063Z,74.40
2022-09-01T08:05:38.356Z,74.10
2022-09-01T08:07:59.180Z,73.90
2022-09-01T08:10:01.933Z,73.50
2022-09-01T08:12:06.282Z,73.90
2022-09-01T08:14:10.400Z,74.00
2022-09-01T08:16:18.021Z,73.40
2022-09-01T08:18:23.109Z,73.70
2022-09-01T08:20:26.005Z,73.90
2022-09-01T08:22:28.803Z,73.00
2022-09-01T08:24:31.794Z,73.00
2022-09-01T08:26:34.527Z,73.00
2022-09-01T08:28:37.353Z,73.20
2022-09-01T08:30:52.662Z,72.60
2022-09-01T08:32:55.958Z,72.10
2022-09-01T08:35:01.719Z,72.00
2022-09-01T08:37:05.473Z,72.00
2022-09-01T08:39:08.248Z,71.80
2022-09-01T08:41:35.237Z,72.40
2022-09-01T08:43:51.499Z,72.50
2022-09-01T08:45:56.657Z,72.80
2022-09-01T08:48:50.704Z,72.20
2022-09-01T08:50:30.801Z,72.30
2022-09-01T08:52:36.830Z,71.60
2022-09-01T08:54:46.740Z,70.80
2022-09-01T08:56:55.458Z,70.50
2022-09-01T08:59:00.244Z,70.30
2022-09-01T09:01:09.454Z,70.60
2022-09-01T09:03:21.012Z,71.10
2022-09-01T09:05:46.850Z,71.80
2022-09-01T09:08:08.119Z,71.20
2022-09-01T09:10:17.858Z,71.90
2022-09-01T09:12:33.592Z,71.00
2022-09-01T09:15:00.640Z,70.70
2022-09-01T09:17:04.342Z,70.90
2022-09-01T09:19:12.242Z,70.90
2022-09-01T09:21:20.325Z,71.20
2022-09-01T09:23:30.561Z,70.30
2022-09-01T09:25:34.390Z,70.40
2022-09-01T09:27:39.268Z,70.40
2022-09-01T09:29:45.471Z,70.00
2022-09-01T09:31:50.692Z,69.90
2022-09-01T09:33:55.209Z,69.10
2022-09-01T09:36:20.124Z,69.40
2022-09-01T09:38:29.111Z,69.60
2022-09-01T09:40:43.292Z,69.70
2022-09-01T09:43:07.449Z,68.70
2022-09-01T09:45:23.917Z,67.70
2022-09-01T09:47:46.286Z,67.90
2022-09-01T09:49:49.202Z,67.80
2022-09-01T09:51:58.613Z,67.30
2022-09-01T09:54:14.150Z,67.00
2022-09-01T09:56:20.691Z,66.60
2022-09-01T09:58:26.589Z,67.40
2022-09-01T10:00:34.014Z,66.50
2022-09-01T10:02:39.794Z,66.30
2022-09-01T10:04:42.729Z,66.60
2022-09-01T10:06:47.028Z,66.10
2022-09-01T10:08:51.385Z,65.10
2022-09-01T10:10:58.031Z,65.20
2022-09-01T10:13:02.379Z,65.30
2022-09-01T10:15:12.584Z,64.90
2022-09-01T10:17:22.646Z,64.60
2022-09-01T10:19:35.097Z,65.10
2022-09-01T10:21:41.099Z,64.60
2022-09-01T10:23:44.916Z,64.40
2022-09-01T10:25:51.251Z,64.30
2022-09-01T10:27:58.348Z,62.90
2022-09-01T10:30:19.219Z,63.60
2022-09-01T10:32:37.031Z,63.30
2022-09-01T10:34:42.807Z,63.30
2022-09-01T10:36:54.757Z,62.70
2022-09-01T10:39:04.997Z,63.40
2022-09-01T10:41:14.960Z,63.40
2022-09-01T10:43:52.363Z,63.60
2022-09-01T10:45:58.870Z,63.00
2022-09-01T10:48:32.590Z,62.50
2022-09-01T10:50:36.671Z,61.20
2022-09-01T10:52:58.970Z,61.20
2022-09-01T10:55:04.335Z,60.60
2022-09-01T10:57:12.281Z,59.30
2022-09-01T10:59:32.047Z,59.90
2022-09-01T11:02:26.935Z,59.90
2022-09-01T11:05:04.779Z,59.20
2022-09-01T11:07:44.456Z,59.50
2022-09-01T11:10:31.369Z,58.60
2022-09-01T11:12:47.185Z,59.10
2022-09-01T11:14:52.688Z,59.10
2022-09-01T11:17:15.199Z,58.40
2022-09-01T11:19:36.332Z,58.30
2022-09-01T11:21:39.240Z,57.80
2022-09-01T11:23:42.101Z,57.50
2022-09-01T11:25:48.601Z,57.50
2022-09-01T11:28:31.241Z,57.60
2022-09-01T11:30:52.019Z,56.60
2022-09-01T11:33:00.538Z,55.80
2022-09-01T11:35:07.643Z,56.10
2022-09-01T11:37:16.980Z,56.50
2022-09-01T11:39:34.824Z,56.20
2022-09-01T11:41:55.861Z,56.30
2022-09-01T11:44:02.958Z,57.50
2022-09-01T11:46:13.182Z,57.00
2022-09-01T11:48:17.724Z,56.60
2022-09-01T11:50:24.351Z,57.40
2022-09-01T11:52:30.118Z,57.00
2022-09-01T11:54:40.352Z,57.10
2022-09-01T11:56:43.356Z,57.20
2022-09-01T11:58:47.652Z,56.70
2022-09-01T12:00:50.472Z,57.20
2022-09-01T12:02:54.836Z,56.80
2022-09-01T12:04:58.780Z,56.80
2022-09-01T12:07:03.649Z,56.00
2022-09-01T12:09:09.085Z,55.70
2022-09-01T12:11:19.426Z,56.10
2022-09-01T12:13:25.041Z,56.60
2022-09-01T12:15:30.720Z,55.90
2022-09-01T12:17:33.540Z,54.30
2022-09-01T12:19:38.583Z,56.20
2022-09-01T12:21:44.082Z,55.90
2022-09-01T12:23:47.669Z,55.60
2022-09-01T12:25:50.760Z,55.30
2022-09-01T12:27:54.381Z,55.40
2022-09-01T12:29:58.804Z,55.40
2022-09-01T12:32:03.468Z,54.20
2022-09-01T12:34:06.815Z,55.00
2022-09-01T12:36:32.507Z,55.00
2022-09-01T12:38:35.356Z,54.80
2022-09-01T12:40:38.291Z,54.60
2022-09-01T12:42:51.506Z,54.80
2022-09-01T12:44:57.237Z,54.00
2022-09-01T12:47:03.723Z,53.10
2022-09-01T12:49:18.310Z,54.00
2022-09-01T12:51:29.218Z,53.80
2022-09-01T12:53:36.953Z,53.30
2022-09-01T12:55:47.819Z,52.70
2022-09-01T12:57:53.486Z,53.50
2022-09-01T13:00:18.071Z,54.00
2022-09-01T13:02:36.717Z,53.90
2022-09-01T13:04:41.653Z,53.30
2022-09-01T13:06:45.673Z,53.10
2022-09-01T13:08:48.459Z,53.60
2022-09-01T13:10:53.343Z,53.80
2022-09-01T13:12:58.001Z,54.30
2022-09-01T13:15:00.923Z,54.00
2022-09-01T13:17:04.176Z,54.00
2022-09-01T13:19:11.643Z,54.40
2022-09-01T13:21:15.223Z,54.10
2022-09-01T13:23:18.457Z,54.20
2022-09-01T13:25:23.208Z,53.40
2022-09-01T13:27:26.015Z,53.80
2022-09-01T13:29:29.628Z,54.20
2022-09-01T13:31:32.900Z,54.50
2022-09-01T13:36:42.877Z,53.30
2022-09-01T13:38:26.076Z,52.80
2022-09-01T13:40:28.902Z,52.90
2022-09-01T13:42:32.162Z,53.60
2022-09-01T13:44:35.575Z,54.00
2022-09-01T13:49:03.597Z,52.40
2022-09-01T13:51:18.583Z,53.20
2022-09-01T13:53:22.030Z,53.30
2022-09-01T13:55:27.390Z,52.90
2022-09-01T13:57:31.534Z,53.10
2022-09-01T13:59:39.278Z,53.00
2022-09-01T14:01:42.864Z,53.50
2022-09-01T14:03:50.020Z,53.60
2022-09-01T14:05:54.744Z,54.00
2022-09-01T14:07:59.402Z,53.50
2022-09-01T14:10:02.704Z,53.80
2022-09-01T14:12:06.347Z,53.30
2022-09-01T14:14:09.211Z,52.00
2022-09-01T14:16:12.679Z,51.90
2022-09-01T14:18:16.681Z,51.60
2022-09-01T14:20:22.260Z,51.70
2022-09-01T14:22:25.042Z,51.10
2022-09-01T14:24:29.147Z,51.30
2022-09-01T14:26:31.885Z,51.30
2022-09-01T14:28:34.627Z,51.80
2022-09-01T14:30:37.900Z,51.70
2022-09-01T14:32:40.656Z,52.10
2022-09-01T14:34:43.467Z,51.20
2022-09-01T14:36:47.514Z,51.80
2022-09-01T14:38:51.243Z,52.10
2022-09-01T14:40:55.439Z,52.10
2022-09-01T14:42:58.547Z,51.60
2022-09-01T14:45:02.006Z,51.00
2022-09-01T14:47:06.370Z,51.90
2022-09-01T14:49:20.281Z,51.60
2022-09-01T14:52:10.336Z,51.30
2022-09-01T14:53:50.961Z,50.40
2022-09-01T14:55:56.947Z,50.50
2022-09-01T14:58:00.362Z,50.80
2022-09-01T15:00:04.444Z,50.60
2022-09-01T15:02:07.420Z,50.60
2022-09-01T15:04:10.308Z,50.70
2022-09-01T15:06:14.347Z,50.80
2022-09-01T15:08:17.947Z,50.80
2022-09-01T15:10:24.540Z,50.70
2022-09-01T15:12:31.129Z,50.60
2022-09-01T15:14:34.028Z,50.50
2022-09-01T15:16:39.701Z,50.00
2022-09-01T15:18:42.600Z,50.00
2022-09-01T15:20:48.738Z,50.30
2022-09-01T15:22:53.908Z,50.30
2022-09-01T15:24:56.696Z,49.80
2022-09-01T15:26:59.510Z,49.60
2022-09-01T15:29:03.635Z,49.30
2022-09-01T15:31:08.084Z,49.40
2022-09-01T15:33:15.391Z,48.30
2022-09-01T15:35:20.087Z,49.30
2022-09-01T15:37:22.856Z,49.30
2022-09-01T15:39:25.638Z,49.30
2022-09-01T15:41:37.917Z,49.70
2022-09-01T15:43:40.665Z,49.70
2022-09-01T15:45:47.423Z,48.00
2022-09-01T15:47:50.479Z,47.70
2022-09-01T15:49:56.303Z,48.70
2022-09-01T15:51:59.099Z,49.20
2022-09-01T15:54:04.166Z,49.00
2022-09-01T15:56:07.364Z,49.20
2022-09-01T15:58:10.976Z,49.00
2022-09-01T16:00:14.718Z,49.10
2022-09-01T16:02:21.318Z,49.40
2022-09-01T16:04:27.772Z,49.60
2022-09-01T16:06:31.339Z,48.70
2022-09-01T16:08:35.396Z,48.30
2022-09-01T16:10:42.141Z,48.50
2022-09-01T16:12:46.581Z,48.70
2022-09-01T16:14:50.280Z,49.30
2022-09-01T16:17:03.206Z,49.50
2022-09-01T16:19:18.253Z,48.90
2022-09-01T16:21:27.756Z,48.70
2022-09-01T16:23:38.808Z,48.70
2022-09-01T16:25:42.081Z,49.10
2022-09-01T16:27:46.384Z,49.40
2022-09-01T16:29:51.783Z,49.40
2022-09-01T16:31:57.177Z,48.60
2022-09-01T16:34:02.878Z,47.80
2022-09-01T16:36:19.533Z,48.60
2022-09-01T16:38:34.163Z,48.90
2022-09-01T16:40:44.201Z,49.80
2022-09-01T16:42:57.970Z,48.80
2022-09-01T16:45:10.850Z,49.00
2022-09-01T16:47:39.872Z,48.70
2022-09-01T16:49:50.153Z,48.30
2022-09-01T16:52:03.789Z,48.90
2022-09-01T16:54:17.567Z,49.00
2022-09-01T16:56:26.603Z,48.60
2022-09-01T16:58:42.200Z,48.50
2022-09-01T17:00:53.939Z,48.80
2022-09-01T17:03:08.977Z,49.20
2022-09-01T17:05:25.522Z,49.50
2022-09-01T17:07:34.088Z,49.60
2022-09-01T17:09:40.599Z,49.70
2022-09-01T17:11:50.061Z,49.50
2022-09-01T17:13:55.847Z,49.30
2022-09-01T17:16:07.887Z,49.00
2022-09-01T17:18:22.131Z,48.10
2022-09-01T17:20:30.382Z,48.80
2022-09-01T17:22:36.567Z,49.60
2022-09-01T17:24:42.700Z,50.20
2022-09-01T17:26:47.764Z,50.40
2022-09-01T17:28:56.188Z,50.60
2022-09-01T17:31:06.812Z,50.90
2022-09-01T17:33:19.396Z,50.40
2022-09-01T17:35:29.871Z,49.50
2022-09-01T17:37:40.512Z,49.10
2022-09-01T17:39:55.407Z,50.10
2022-09-01T17:42:02.311Z,51.50
2022-09-01T17:44:17.948Z,52.10
2022-09-01T17:46:28.997Z,51.30
2022-09-01T17:48:42.520Z,51.70
2022-09-01T17:51:01.148Z,51.80
2022-09-01T17:53:14.057Z,51.80
2022-09-01T17:55:26.208Z,52.10
2022-09-01T17:57:36.430Z,51.90
2022-09-01T17:59:47.409Z,51.90
2022-09-01T18:02:02.565Z,51.90
2022-09-01T18:04:40.903Z,51.70
2022-09-01T18:06:50.026Z,52.10
2022-09-01T18:08:58.231Z,51.70
2022-09-01T18:11:05.948Z,51.30
2022-09-01T18:13:30.830Z,50.90
2022-09-01T18:15:48.993Z,50.40
2022-09-01T18:18:06.234Z,49.90
2022-09-01T18:20:12.165Z,50.10
2022-09-01T18:22:17.757Z,50.30
2022-09-01T18:24:26.180Z,50.60
2022-09-01T18:26:34.790Z,51.00
2022-09-01T18:28:37.894Z,51.20
2022-09-01T18:30:54.694Z,51.30
2022-09-01T18:33:04.419Z,51.20
2022-09-01T18:35:30.315Z,51.10
2022-09-01T18:37:41.124Z,51.00
2022-09-01T18:39:55.937Z,50.70
2022-09-01T18:42:10.923Z,50.80
2022-09-01T18:44:34.756Z,50.80
2022-09-01T18:46:43.679Z,51.00
2022-09-01T18:49:00.879Z,51.20
2022-09-01T18:51:13.990Z,51.20
2022-09-01T18:53:30.360Z,51.70
2022-09-01T18:55:43.725Z,50.70
2022-09-01T18:57:52.072Z,51.00
2022-09-01T19:00:16.980Z,50.50
2022-09-01T19:02:35.409Z,51.10
2022-09-01T19:04:42.224Z,51.00
2022-09-01T19:06:53.440Z,51.10
2022-09-01T19:09:07.637Z,51.80
2022-09-01T19:11:18.190Z,51.30
2022-09-01T19:13:44.868Z,51.20
2022-09-01T19:15:56.860Z,51.10
2022-09-01T19:18:19.153Z,51.10
2022-09-01T19:20:26.703Z,51.40
2022-09-01T19:22:40.304Z,51.20
2022-09-01T19:24:48.026Z,51.70
2022-09-01T19:26:57.635Z,51.60
2022-09-01T19:29:05.739Z,51.50
2022-09-01T19:31:25.698Z,51.60
2022-09-01T19:33:35.955Z,51.90
2022-09-01T19:35:43.255Z,51.60
2022-09-01T19:37:51.013Z,51.80
2022-09-01T19:39:54.602Z,52.50
2022-09-01T19:42:04.471Z,51.90
2022-09-01T19:44:15.148Z,51.90
2022-09-01T19:46:27.864Z,51.60
2022-09-01T19:48:38.231Z,51.70
2022-09-01T19:50:48.718Z,51.80
2022-09-01T19:53:01.965Z,51.80
2022-09-01T19:55:10.576Z,52.00
2022-09-01T19:57:20.096Z,52.20
2022-09-01T19:59:28.166Z,52.10
2022-09-01T20:01:40.511Z,51.90
2022-09-01T20:03:47.935Z,52.40
2022-09-01T20:05:55.337Z,52.50
2022-09-01T20:08:03.257Z,52.40
2022-09-01T20:10:23.187Z,52.50
2022-09-01T20:12:34.909Z,52.50
2022-09-01T20:14:56.876Z,52.30
2022-09-01T20:17:03.356Z,52.40
2022-09-01T20:19:11.580Z,52.50
2022-09-01T20:21:18.946Z,52.60
2022-09-01T20:23:29.234Z,52.60
2022-09-01T20:25:41.170Z,52.60
2022-09-01T20:27:51.712Z,52.60
2022-09-01T20:30:01.550Z,52.70
2022-09-01T20:32:05.199Z,52.80
2022-09-01T20:34:15.137Z,52.80
2022-09-01T20:36:22.191Z,52.70
2022-09-01T20:38:46.239Z,52.90
2022-09-01T20:40:50.366Z,53.10
2022-09-01T20:43:06.575Z,53.20
2022-09-01T20:45:14.049Z,53.30
2022-09-01T20:47:16.865Z,53.40
2022-09-01T20:49:19.718Z,53.60
2022-09-01T20:51:30.892Z,53.70
2022-09-01T20:53:55.501Z,54.00
2022-09-01T20:56:04.249Z,54.10
2022-09-01T20:58:15.829Z,54.10
2022-09-01T21:00:22.957Z,54.20
2022-09-01T21:02:43.630Z,54.30
2022-09-01T21:04:55.710Z,54.70
2022-09-01T21:07:05.916Z,54.90
2022-09-01T21:09:13.595Z,55.10
2022-09-01T21:11:34.145Z,55.20
2022-09-01T21:13:55.392Z,55.30
2022-09-01T21:16:04.627Z,55.20
2022-09-01T21:18:22.839Z,55.10
2022-09-01T21:20:35.432Z,55.00
2022-09-01T21:22:38.223Z,55.00
2022-09-01T21:24:43.017Z,55.10
2022-09-01T21:26:49.288Z,55.30
2022-09-01T21:28:56.192Z,55.20
2022-09-01T21:31:01.829Z,55.00
2022-09-01T21:33:05.063Z,55.20
2022-09-01T21:35:11.364Z,55.30
2022-09-01T21:37:14.317Z,55.40
2022-09-01T21:39:17.187Z,55.40
2022-09-01T21:41:19.940Z,55.50
2022-09-01T21:43:26.059Z,55.60
2022-09-01T21:45:33.041Z,55.60
2022-09-01T21:47:36.046Z,55.80
2022-09-01T21:49:39.485Z,55.80
2022-09-01T21:51:42.712Z,56.40
2022-09-01T21:53:46.544Z,55.90
2022-09-01T21:55:49.758Z,56.10
2022-09-01T21:57:52.705Z,56.10
2022-09-01T21:59:55.433Z,56.20
2022-09-01T22:02:00.646Z,56.30
2022-09-01T22:04:05.255Z,56.30
2022-09-01T22:06:12.354Z,56.30
2022-09-01T22:08:17.123Z,56.30
2022-09-01T22:10:23.652Z,57.00
2022-09-01T22:12:26.674Z,56.60
2022-09-01T22:14:29.488Z,56.80
2022-09-01T22:16:33.298Z,56.70
2022-09-01T22:18:37.459Z,56.80
2022-09-01T22:20:40.862Z,56.90
2022-09-01T22:22:44.313Z,56.80
2022-09-01T22:24:47.180Z,57.00
2022-09-01T22:26:50.131Z,56.90
2022-09-01T22:28:55.388Z,57.00
2022-09-01T22:30:58.675Z,57.00
2022-09-01T22:33:02.577Z,57.10
2022-09-01T22:35:08.942Z,57.10
2022-09-01T22:37:11.787Z,57.20
2022-09-01T22:39:17.088Z,57.20
2022-09-01T22:41:21.458Z,57.10
2022-09-01T22:43:24.868Z,57.20
2022-09-01T22:45:28.064Z,57.30
2022-09-01T22:47:31.005Z,57.30
2022-09-01T22:49:38.036Z,57.40
2022-09-01T22:51:43.786Z,57.50
2022-09-01T22:53:47.692Z,57.60
2022-09-01T22:55:53.012Z,57.70
2022-09-01T22:57:55.897Z,57.80
2022-09-01T23:00:00.879Z,57.90
2022-09-01T23:02:03.684Z,58.20
2022-09-01T23:04:09.172Z,58.30
2022-09-01T23:06:13.843Z,58.40
2022-09-01T23:08:25.900Z,58.50
2022-09-01T23:10:29.141Z,58.70
2022-09-01T23:12:31.909Z,58.80
2022-09-01T23:14:34.740Z,58.80
2022-09-01T23:16:37.758Z,58.80
2022-09-01T23:18:42.733Z,58.90
2022-09-01T23:20:45.604Z,59.10
2022-09-01T23:22:48.354Z,59.30
2022-09-01T23:24:53.659Z,59.20
2022-09-01T23:26:56.763Z,59.40
2022-09-01T23:29:00.635Z,59.30
2022-09-01T23:31:03.436Z,59.30
2022-09-01T23:33:06.647Z,59.50
2022-09-01T23:35:10.442Z,59.40
2022-09-01T23:37:13.169Z,59.50
2022-09-01T23:39:16.243Z,59.60
2022-09-01T23:41:23.534Z,59.70
2022-09-01T23:43:27.487Z,60.10
2022-09-01T23:45:35.775Z,60.10
2022-09-01T23:47:39.073Z,60.10
2022-09-01T23:49:42.349Z,60.30
2022-09-01T23:51:46.672Z,60.50
2022-09-01T23:53:51.080Z,60.90
2022-09-01T23:55:56.549Z,61.30
2022-09-01T23:58:00.725Z,61.40
